createdAt,value
2022-10-25T00:00:02.491Z,14.37
2022-10-25T00:01:02.124Z,14.34
2022-10-25T00:02:03.822Z,14.31
2022-10-25T00:03:03.413Z,14.30
2022-10-25T00:04:03.341Z,14.26
2022-10-25T00:05:03.182Z,14.24
2022-10-25T00:06:03.351Z,14.21
2022-10-25T00:07:02.298Z,14.20
2022-10-25T00:08:02.455Z,14.17
2022-10-25T00:09:02.789Z,14.16
2022-10-25T00:10:02.598Z,14.14
2022-10-25T00:11:02.794Z,14.14
2022-10-25T00:12:03.500Z,14.11
2022-10-25T00:13:03.108Z,14.08
2022-10-25T00:14:02.942Z,14.07
2022-10-25T00:15:02.951Z,14.05
2022-10-25T00:16:02.895Z,14.02
2022-10-25T00:17:03.023Z,14.01
2022-10-25T00:18:03.343Z,13.99
2022-10-25T00:19:02.994Z,13.97
2022-10-25T00:20:02.827Z,13.95
2022-10-25T00:22:03.076Z,13.89
2022-10-25T00:23:03.401Z,13.88
2022-10-25T00:24:03.283Z,13.85
2022-10-25T00:25:03.386Z,13.82
2022-10-25T00:26:03.412Z,13.81
2022-10-25T00:27:02.293Z,13.78
2022-10-25T00:28:02.751Z,13.75
2022-10-25T00:29:02.569Z,13.72
2022-10-25T00:30:02.383Z,13.71
2022-10-25T00:31:02.309Z,13.70
2022-10-25T00:32:03.403Z,13.68
2022-10-25T00:33:02.946Z,13.66
2022-10-25T00:34:03.181Z,13.64
2022-10-25T00:35:03.250Z,13.61
2022-10-25T00:36:03.077Z,13.58
2022-10-25T00:37:03.074Z,13.56
2022-10-25T00:38:03.435Z,13.52
2022-10-25T00:39:03.281Z,13.49
2022-10-25T00:40:02.965Z,13.46
2022-10-25T00:41:03.290Z,13.46
2022-10-25T00:42:03.121Z,13.45
2022-10-25T00:43:03.613Z,13.43
2022-10-25T00:44:03.499Z,13.45
2022-10-25T00:45:03.288Z,13.44
2022-10-25T00:46:03.162Z,13.44
2022-10-25T00:47:02.802Z,13.44
2022-10-25T00:48:02.756Z,13.44
2022-10-25T00:49:02.740Z,13.44
2022-10-25T00:50:03.229Z,13.45
2022-10-25T00:51:03.123Z,13.45
2022-10-25T00:52:03.013Z,13.45
2022-10-25T00:53:03.354Z,13.44
2022-10-25T00:54:03.144Z,13.45
2022-10-25T00:55:03.014Z,13.45
2022-10-25T00:56:03.254Z,13.45
2022-10-25T00:57:03.216Z,13.44
2022-10-25T00:58:03.773Z,13.43
2022-10-25T00:59:03.214Z,13.40
2022-10-25T01:00:03.079Z,13.39
2022-10-25T01:01:03.169Z,13.39
2022-10-25T01:02:03.440Z,13.38
2022-10-25T01:03:03.246Z,13.38
2022-10-25T01:04:03.156Z,13.37
2022-10-25T01:05:03.025Z,13.37
2022-10-25T01:06:02.698Z,13.35
2022-10-25T01:07:02.307Z,13.34
2022-10-25T01:08:02.172Z,13.32
2022-10-25T01:09:02.491Z,13.32
2022-10-25T01:10:02.578Z,13.34
2022-10-25T01:11:02.594Z,13.32
2022-10-25T01:12:02.668Z,13.33
2022-10-25T01:13:02.498Z,13.33
2022-10-25T01:14:02.376Z,13.34
2022-10-25T01:15:02.257Z,13.33
2022-10-25T01:16:02.827Z,13.33
2022-10-25T01:17:02.581Z,13.33
2022-10-25T01:18:02.460Z,13.33
2022-10-25T01:19:02.428Z,13.31
2022-10-25T01:20:02.861Z,13.30
2022-10-25T01:21:02.406Z,13.32
2022-10-25T01:22:03.235Z,13.31
2022-10-25T01:23:03.155Z,13.31
2022-10-25T01:24:02.972Z,13.32
2022-10-25T01:25:03.192Z,13.35
2022-10-25T01:26:03.133Z,13.33
2022-10-25T01:27:02.580Z,13.33
2022-10-25T01:28:02.684Z,13.32
2022-10-25T01:29:03.059Z,13.30
2022-10-25T01:30:02.557Z,13.29
2022-10-25T01:31:02.383Z,13.30
2022-10-25T01:32:03.009Z,13.29
2022-10-25T01:33:02.810Z,13.29
2022-10-25T01:34:02.949Z,13.28
2022-10-25T01:35:02.820Z,13.27
2022-10-25T01:36:03.414Z,13.26
2022-10-25T01:37:02.744Z,13.26
2022-10-25T01:38:02.587Z,13.25
2022-10-25T01:39:02.382Z,13.27
2022-10-25T01:40:02.973Z,13.26
2022-10-25T01:41:02.603Z,13.27
2022-10-25T01:42:02.665Z,13.27
2022-10-25T01:43:02.290Z,13.26
2022-10-25T01:44:02.010Z,13.27
2022-10-25T01:45:02.653Z,13.26
2022-10-25T01:46:02.242Z,13.25
2022-10-25T01:47:02.964Z,13.24
2022-10-25T01:48:02.369Z,13.23
2022-10-25T01:49:02.996Z,13.22
2022-10-25T01:50:02.592Z,13.24
2022-10-25T01:51:02.852Z,13.24
2022-10-25T01:52:02.455Z,13.21
2022-10-25T01:53:02.209Z,13.21
2022-10-25T01:54:02.543Z,13.22
2022-10-25T01:55:02.429Z,13.24
2022-10-25T01:56:02.620Z,13.25
2022-10-25T01:57:02.973Z,13.25
2022-10-25T01:58:02.757Z,13.23
2022-10-25T01:59:02.533Z,13.24
2022-10-25T02:00:02.705Z,13.25
2022-10-25T02:01:03.020Z,13.28
2022-10-25T02:02:02.454Z,13.32
2022-10-25T02:03:01.994Z,13.33
2022-10-25T02:04:01.918Z,13.33
2022-10-25T02:05:01.998Z,13.32
2022-10-25T02:06:01.941Z,13.33
2022-10-25T02:07:02.156Z,13.34
2022-10-25T02:08:02.021Z,13.36
2022-10-25T02:09:02.305Z,13.36
2022-10-25T02:10:02.346Z,13.38
2022-10-25T02:11:02.017Z,13.38
2022-10-25T02:12:02.479Z,13.37
2022-10-25T02:13:02.521Z,13.38
2022-10-25T02:14:02.172Z,13.36
2022-10-25T02:15:02.752Z,13.36
2022-10-25T02:16:02.733Z,13.36
2022-10-25T02:17:02.065Z,13.35
2022-10-25T02:18:01.779Z,13.36
2022-10-25T02:19:01.850Z,13.36
2022-10-25T02:20:01.737Z,13.36
2022-10-25T02:21:02.094Z,13.36
2022-10-25T02:22:02.552Z,13.35
2022-10-25T02:23:02.634Z,13.35
2022-10-25T02:24:02.428Z,13.34
2022-10-25T02:25:02.250Z,13.36
2022-10-25T02:26:02.789Z,13.34
2022-10-25T02:27:02.113Z,13.35
2022-10-25T02:28:01.989Z,13.35
2022-10-25T02:29:01.752Z,13.34
2022-10-25T02:30:02.093Z,13.33
2022-10-25T02:31:01.961Z,13.33
2022-10-25T02:32:02.438Z,13.34
2022-10-25T02:33:02.155Z,13.32
2022-10-25T02:34:01.856Z,13.35
2022-10-25T02:35:02.511Z,13.37
2022-10-25T02:36:01.940Z,13.37
2022-10-25T02:37:02.568Z,13.38
2022-10-25T02:38:02.464Z,13.38
2022-10-25T02:39:02.324Z,13.37
2022-10-25T02:40:02.177Z,13.37
2022-10-25T02:41:01.939Z,13.37
2022-10-25T02:42:02.715Z,13.37
2022-10-25T02:43:02.693Z,13.37
2022-10-25T02:44:02.715Z,13.38
2022-10-25T02:45:02.632Z,13.40
2022-10-25T02:46:02.630Z,13.41
2022-10-25T02:47:01.595Z,13.42
2022-10-25T02:48:02.141Z,13.43
2022-10-25T02:49:01.759Z,13.43
2022-10-25T02:50:01.601Z,13.46
2022-10-25T02:51:02.147Z,13.46
2022-10-25T02:52:02.653Z,13.46
2022-10-25T02:53:02.207Z,13.46
2022-10-25T02:54:02.053Z,13.47
2022-10-25T02:55:02.129Z,13.46
2022-10-25T02:56:02.550Z,13.47
2022-10-25T02:57:02.450Z,13.47
2022-10-25T02:58:03.039Z,13.46
2022-10-25T02:59:02.371Z,13.47
2022-10-25T03:00:02.794Z,13.48
2022-10-25T03:01:02.950Z,13.45
2022-10-25T03:02:02.250Z,13.43
2022-10-25T03:03:01.644Z,13.39
2022-10-25T03:04:01.773Z,13.37
2022-10-25T03:05:02.268Z,13.34
2022-10-25T03:06:01.890Z,13.33
2022-10-25T03:07:01.893Z,13.31
2022-10-25T03:08:02.209Z,13.31
2022-10-25T03:09:02.196Z,13.31
2022-10-25T03:10:02.100Z,13.30
2022-10-25T03:11:01.808Z,13.33
2022-10-25T03:12:02.160Z,13.33
2022-10-25T03:13:02.524Z,13.35
2022-10-25T03:14:02.558Z,13.35
2022-10-25T03:15:02.542Z,13.35
2022-10-25T03:16:02.732Z,13.35
2022-10-25T03:17:02.425Z,13.35
2022-10-25T03:18:02.683Z,13.35
2022-10-25T03:19:02.507Z,13.35
2022-10-25T03:20:02.421Z,13.36
2022-10-25T03:21:02.825Z,13.37
2022-10-25T03:22:02.190Z,13.40
2022-10-25T03:23:02.056Z,13.43
2022-10-25T03:24:01.797Z,13.39
2022-10-25T03:25:02.424Z,13.36
2022-10-25T03:26:02.107Z,13.32
2022-10-25T03:27:02.215Z,13.30
2022-10-25T03:28:01.980Z,13.31
2022-10-25T03:29:02.524Z,13.32
2022-10-25T03:30:02.094Z,13.31
2022-10-25T03:31:02.808Z,13.30
2022-10-25T03:32:02.457Z,13.30
2022-10-25T03:33:02.960Z,13.30
2022-10-25T03:34:02.821Z,13.29
2022-10-25T03:35:02.956Z,13.29
2022-10-25T03:36:02.618Z,13.28
2022-10-25T03:37:02.450Z,13.25
2022-10-25T03:38:02.635Z,13.27
2022-10-25T03:39:02.536Z,13.25
2022-10-25T03:40:02.351Z,13.24
2022-10-25T03:41:02.028Z,13.25
2022-10-25T03:42:02.551Z,13.22
2022-10-25T03:43:02.751Z,13.21
2022-10-25T03:44:02.705Z,13.18
2022-10-25T03:45:02.707Z,13.17
2022-10-25T03:46:02.468Z,13.16
2022-10-25T03:47:02.472Z,13.17
2022-10-25T03:48:02.360Z,13.15
2022-10-25T03:49:02.247Z,13.15
2022-10-25T03:50:02.295Z,13.15
2022-10-25T03:51:02.242Z,13.15
2022-10-25T03:52:04.180Z,13.16
2022-10-25T03:53:01.925Z,13.17
2022-10-25T03:54:02.500Z,13.18
2022-10-25T03:55:02.285Z,13.19
2022-10-25T03:56:01.967Z,13.18
2022-10-25T03:57:02.881Z,13.18
2022-10-25T03:58:02.782Z,13.23
2022-10-25T03:59:02.499Z,13.22
2022-10-25T04:00:03.007Z,13.25
2022-10-25T04:01:02.872Z,13.24
2022-10-25T04:02:02.440Z,13.25
2022-10-25T04:03:02.975Z,13.27
2022-10-25T04:04:02.818Z,13.29
2022-10-25T04:05:02.431Z,13.30
2022-10-25T04:06:02.439Z,13.31
2022-10-25T04:07:02.254Z,13.33
2022-10-25T04:08:02.474Z,13.33
2022-10-25T04:09:02.303Z,13.35
2022-10-25T04:10:02.182Z,13.37
2022-10-25T04:11:02.486Z,13.40
2022-10-25T04:12:03.044Z,13.41
2022-10-25T04:13:03.010Z,13.43
2022-10-25T04:14:02.635Z,13.47
2022-10-25T04:15:02.825Z,13.49
2022-10-25T04:16:02.741Z,13.52
2022-10-25T04:17:03.011Z,13.55
2022-10-25T04:18:03.034Z,13.56
2022-10-25T04:19:03.176Z,13.59
2022-10-25T04:20:02.921Z,13.60
2022-10-25T04:21:02.803Z,13.64
2022-10-25T04:22:02.795Z,13.65
2022-10-25T04:23:02.391Z,13.65
2022-10-25T04:24:04.354Z,13.67
2022-10-25T04:25:02.487Z,13.68
2022-10-25T04:26:02.441Z,13.69
2022-10-25T04:27:02.924Z,13.70
2022-10-25T04:28:02.795Z,13.72
2022-10-25T04:29:02.986Z,13.74
2022-10-25T04:30:02.875Z,13.77
2022-10-25T04:31:03.369Z,13.76
2022-10-25T04:32:02.675Z,13.77
2022-10-25T04:33:02.351Z,13.79
2022-10-25T04:34:02.864Z,13.81
2022-10-25T04:35:02.676Z,13.83
2022-10-25T04:36:02.522Z,13.85
2022-10-25T04:37:03.061Z,13.85
2022-10-25T04:38:02.892Z,13.87
2022-10-25T04:39:02.723Z,13.89
2022-10-25T04:40:03.103Z,13.90
2022-10-25T04:41:02.892Z,13.92
2022-10-25T04:42:02.480Z,13.93
2022-10-25T04:43:02.296Z,13.94
2022-10-25T04:44:02.602Z,13.94
2022-10-25T04:45:02.034Z,13.94
2022-10-25T04:46:02.473Z,13.94
2022-10-25T04:47:02.974Z,13.97
2022-10-25T04:48:03.014Z,13.97
2022-10-25T04:49:02.902Z,13.99
2022-10-25T04:50:02.693Z,13.99
2022-10-25T04:51:03.198Z,14.01
2022-10-25T04:52:02.503Z,14.00
2022-10-25T04:53:02.200Z,14.01
2022-10-25T04:54:02.628Z,14.01
2022-10-25T04:55:02.330Z,14.02
2022-10-25T04:56:02.288Z,14.00
2022-10-25T04:57:02.707Z,14.00
2022-10-25T04:58:02.614Z,13.99
2022-10-25T04:59:03.030Z,13.98
2022-10-25T05:00:02.682Z,13.99
2022-10-25T05:01:03.063Z,13.95
2022-10-25T05:02:02.940Z,13.94
2022-10-25T05:03:02.614Z,13.92
2022-10-25T05:04:02.638Z,13.93
2022-10-25T05:05:02.939Z,13.93
2022-10-25T05:06:02.903Z,13.94
2022-10-25T05:07:02.292Z,13.95
2022-10-25T05:08:02.238Z,13.96
2022-10-25T05:09:01.980Z,13.96
2022-10-25T05:10:01.999Z,13.96
2022-10-25T05:11:02.298Z,13.97
2022-10-25T05:12:02.851Z,13.95
2022-10-25T05:13:02.572Z,13.94
2022-10-25T05:14:02.414Z,13.94
2022-10-25T05:15:02.325Z,13.96
2022-10-25T05:16:02.690Z,13.96
2022-10-25T05:17:03.245Z,13.95
2022-10-25T05:18:03.107Z,13.94
2022-10-25T05:19:02.856Z,13.92
2022-10-25T05:20:03.324Z,13.90
2022-10-25T05:21:03.292Z,13.90
2022-10-25T05:22:03.505Z,13.90
2022-10-25T05:23:03.161Z,13.89
2022-10-25T05:24:03.158Z,13.90
2022-10-25T05:25:03.237Z,13.90
2022-10-25T05:26:03.134Z,13.91
2022-10-25T05:27:02.883Z,13.91
2022-10-25T05:28:02.529Z,13.90
2022-10-25T05:29:04.587Z,13.88
2022-10-25T05:30:02.283Z,13.90
2022-10-25T05:31:02.878Z,13.88
2022-10-25T05:32:02.870Z,13.87
2022-10-25T05:33:04.880Z,13.90
2022-10-25T05:34:02.812Z,13.92
2022-10-25T05:35:02.772Z,13.94
2022-10-25T05:36:02.908Z,13.94
2022-10-25T05:37:03.545Z,13.93
2022-10-25T05:38:03.387Z,13.92
2022-10-25T05:39:03.267Z,13.95
2022-10-25T05:40:03.514Z,13.94
2022-10-25T05:41:03.185Z,13.93
2022-10-25T05:42:02.477Z,13.93
2022-10-25T05:43:03.044Z,13.93
2022-10-25T05:44:02.655Z,13.92
2022-10-25T05:45:02.544Z,13.94
2022-10-25T05:46:03.099Z,13.94
2022-10-25T05:47:02.823Z,13.93
2022-10-25T05:48:03.023Z,13.94
2022-10-25T05:49:03.046Z,13.94
2022-10-25T05:50:02.979Z,13.93
2022-10-25T05:51:14.338Z,13.93
2022-10-25T05:52:03.015Z,13.92
2022-10-25T05:53:03.120Z,13.94
2022-10-25T05:54:03.316Z,13.95
2022-10-25T05:55:03.393Z,13.95
2022-10-25T05:56:03.355Z,13.94
2022-10-25T05:57:02.276Z,13.96
2022-10-25T05:58:02.625Z,13.96
2022-10-25T05:59:02.788Z,13.97
2022-10-25T06:00:02.291Z,14.00
2022-10-25T06:01:02.422Z,14.02
2022-10-25T06:02:03.044Z,14.02
2022-10-25T06:03:02.638Z,14.01
2022-10-25T06:04:02.967Z,14.00
2022-10-25T06:05:02.990Z,14.00
2022-10-25T06:06:03.010Z,14.01
2022-10-25T06:07:03.009Z,14.02
2022-10-25T06:08:03.076Z,14.02
2022-10-25T06:09:03.509Z,14.01
2022-10-25T06:10:05.044Z,14.00
2022-10-25T06:11:03.591Z,14.00
2022-10-25T06:12:04.892Z,13.99
2022-10-25T06:13:02.940Z,13.98
2022-10-25T06:14:02.787Z,13.98
2022-10-25T06:15:02.682Z,14.00
2022-10-25T06:16:02.670Z,14.04
2022-10-25T06:17:03.349Z,14.05
2022-10-25T06:18:03.367Z,14.06
2022-10-25T06:19:03.172Z,14.06
2022-10-25T06:20:03.001Z,14.07
2022-10-25T06:21:03.007Z,14.06
2022-10-25T06:22:02.954Z,14.06
2022-10-25T06:23:03.184Z,14.06
2022-10-25T06:24:03.209Z,14.05
2022-10-25T06:25:03.117Z,14.05
2022-10-25T06:26:03.040Z,14.07
2022-10-25T06:27:03.709Z,14.07
2022-10-25T06:28:03.617Z,14.08
2022-10-25T06:29:03.065Z,14.09
2022-10-25T06:30:03.474Z,14.08
2022-10-25T06:31:03.653Z,14.07
2022-10-25T06:32:02.380Z,14.07
2022-10-25T06:33:02.647Z,14.08
2022-10-25T06:34:02.322Z,14.07
2022-10-25T06:35:02.247Z,14.06
2022-10-25T06:36:02.396Z,14.07
2022-10-25T06:37:03.114Z,14.10
2022-10-25T06:38:03.081Z,14.11
2022-10-25T06:39:05.707Z,14.10
2022-10-25T06:40:03.583Z,14.10
2022-10-25T06:41:03.496Z,14.09
2022-10-25T06:42:02.323Z,14.09
2022-10-25T06:43:02.258Z,14.11
2022-10-25T06:44:06.404Z,14.11
2022-10-25T06:45:02.296Z,14.13
2022-10-25T06:46:02.211Z,14.14
2022-10-25T06:47:16.981Z,14.14
2022-10-25T06:48:03.125Z,14.15
2022-10-25T06:49:03.047Z,14.15
2022-10-25T06:50:03.236Z,14.18
2022-10-25T06:51:03.365Z,14.19
2022-10-25T06:52:03.235Z,14.21
2022-10-25T06:53:03.345Z,14.21
2022-10-25T06:54:02.848Z,14.22
2022-10-25T06:55:03.206Z,14.21
2022-10-25T06:56:04.746Z,14.18
2022-10-25T06:57:03.214Z,14.20
2022-10-25T06:58:03.423Z,14.20
2022-10-25T06:59:03.469Z,14.21
2022-10-25T07:00:03.460Z,14.21
2022-10-25T07:01:03.531Z,14.20
2022-10-25T07:02:03.356Z,14.20
2022-10-25T07:03:03.501Z,14.19
2022-10-25T07:04:03.092Z,14.21
2022-10-25T07:05:03.678Z,14.22
2022-10-25T07:06:03.613Z,14.25
2022-10-25T07:07:02.808Z,14.24
2022-10-25T07:08:02.654Z,14.27
2022-10-25T07:09:02.621Z,14.27
2022-10-25T07:10:02.666Z,14.29
2022-10-25T07:11:02.599Z,14.31
2022-10-25T07:12:03.329Z,14.33
2022-10-25T07:13:03.465Z,14.34
2022-10-25T07:14:03.686Z,14.36
2022-10-25T07:15:03.467Z,14.37
2022-10-25T07:16:03.480Z,14.39
2022-10-25T07:17:03.503Z,14.40
2022-10-25T07:18:03.815Z,14.43
2022-10-25T07:19:03.488Z,14.44
2022-10-25T07:20:03.862Z,14.46
2022-10-25T07:21:03.624Z,14.48
2022-10-25T07:22:02.828Z,14.48
2022-10-25T07:23:05.395Z,14.49
2022-10-25T07:24:02.596Z,14.48
2022-10-25T07:25:03.019Z,14.50
2022-10-25T07:26:02.862Z,14.54
2022-10-25T07:27:02.906Z,14.55
2022-10-25T07:28:02.925Z,14.58
2022-10-25T07:29:02.849Z,14.60
2022-10-25T07:30:02.698Z,14.61
2022-10-25T07:31:02.582Z,14.61
2022-10-25T07:32:03.550Z,14.63
2022-10-25T07:33:03.482Z,14.63
2022-10-25T07:34:03.524Z,14.64
2022-10-25T07:35:03.542Z,14.65
2022-10-25T07:36:11.045Z,14.67
2022-10-25T07:37:03.117Z,14.66
2022-10-25T07:38:03.212Z,14.70
2022-10-25T07:39:03.452Z,14.71
2022-10-25T07:40:03.436Z,14.73
2022-10-25T07:41:03.323Z,14.75
2022-10-25T07:42:02.903Z,14.79
2022-10-25T07:43:02.616Z,14.83
2022-10-25T07:44:02.451Z,14.87
2022-10-25T07:45:02.855Z,14.92
2022-10-25T07:46:03.071Z,14.96
2022-10-25T07:47:03.462Z,15.00
2022-10-25T07:48:03.109Z,15.04
2022-10-25T07:49:03.280Z,15.09
2022-10-25T07:50:03.593Z,15.14
2022-10-25T07:51:03.564Z,15.19
2022-10-25T07:52:03.507Z,15.21
2022-10-25T07:53:03.403Z,15.23
2022-10-25T07:54:03.685Z,15.25
2022-10-25T07:55:03.110Z,15.27
2022-10-25T07:56:03.559Z,15.29
2022-10-25T07:57:03.527Z,15.33
2022-10-25T07:58:03.315Z,15.38
2022-10-25T07:59:03.371Z,15.39
2022-10-25T08:00:03.310Z,15.42
2022-10-25T08:01:03.592Z,15.43
2022-10-25T08:02:03.149Z,15.45
2022-10-25T08:03:03.179Z,15.44
2022-10-25T08:04:03.154Z,15.48
2022-10-25T08:05:03.243Z,15.47
2022-10-25T08:06:02.919Z,15.45
2022-10-25T08:07:03.136Z,15.45
2022-10-25T08:08:03.099Z,15.47
2022-10-25T08:09:14.206Z,15.49
2022-10-25T08:10:03.201Z,15.52
2022-10-25T08:11:03.051Z,15.54
2022-10-25T08:12:02.816Z,15.58
2022-10-25T08:13:02.749Z,15.59
2022-10-25T08:14:02.273Z,15.63
2022-10-25T08:15:02.265Z,15.64
2022-10-25T08:16:02.352Z,15.67
2022-10-25T08:17:02.844Z,15.66
2022-10-25T08:18:02.942Z,15.69
2022-10-25T08:19:02.563Z,15.70
2022-10-25T08:20:02.427Z,15.70
2022-10-25T08:21:03.830Z,15.69
2022-10-25T08:22:03.018Z,15.71
2022-10-25T08:23:02.745Z,15.75
2022-10-25T08:24:02.781Z,15.78
2022-10-25T08:25:02.738Z,15.84
2022-10-25T08:26:02.665Z,15.88
2022-10-25T08:27:03.329Z,15.90
2022-10-25T08:28:03.207Z,15.92
2022-10-25T08:29:03.134Z,15.93
2022-10-25T08:30:03.072Z,15.96
2022-10-25T08:31:03.336Z,15.99
2022-10-25T08:32:03.360Z,16.02
2022-10-25T08:33:03.317Z,16.03
2022-10-25T08:34:03.374Z,16.02
2022-10-25T08:35:03.111Z,16.03
2022-10-25T08:36:03.442Z,16.04
2022-10-25T08:37:02.938Z,16.02
2022-10-25T08:38:02.723Z,16.03
2022-10-25T08:39:02.532Z,15.97
2022-10-25T08:40:02.958Z,15.98
2022-10-25T08:41:02.658Z,16.00
2022-10-25T08:42:02.967Z,16.00
2022-10-25T08:43:03.337Z,16.02
2022-10-25T08:44:03.330Z,16.00
2022-10-25T08:45:03.044Z,16.00
2022-10-25T08:46:03.515Z,16.02
2022-10-25T08:47:03.574Z,16.03
2022-10-25T08:48:03.122Z,16.07
2022-10-25T08:49:02.957Z,16.09
2022-10-25T08:50:03.175Z,16.10
2022-10-25T08:51:03.642Z,16.13
2022-10-25T08:52:02.241Z,16.12
2022-10-25T08:53:02.895Z,16.15
2022-10-25T08:54:02.543Z,16.17
2022-10-25T08:55:04.879Z,16.21
2022-10-25T08:56:16.251Z,16.25
2022-10-25T08:57:15.107Z,16.30
2022-10-25T08:58:02.623Z,16.31
2022-10-25T08:59:03.037Z,16.32
2022-10-25T09:00:03.054Z,16.36
2022-10-25T09:01:03.327Z,16.40
2022-10-25T09:02:02.273Z,16.41
2022-10-25T09:03:02.161Z,16.43
2022-10-25T09:04:02.388Z,16.44
2022-10-25T09:05:02.397Z,16.47
2022-10-25T09:06:02.337Z,16.52
2022-10-25T09:07:02.473Z,16.58
2022-10-25T09:08:03.085Z,16.61
2022-10-25T09:09:02.569Z,16.65
2022-10-25T09:10:03.150Z,16.69
2022-10-25T09:11:03.010Z,16.72
2022-10-25T09:12:02.087Z,16.76
2022-10-25T09:13:03.250Z,16.79
2022-10-25T09:14:02.487Z,16.79
2022-10-25T09:15:02.500Z,16.80
2022-10-25T09:16:02.225Z,16.82
2022-10-25T09:17:02.722Z,16.84
2022-10-25T09:18:02.242Z,16.87
2022-10-25T09:19:02.380Z,16.89
2022-10-25T09:20:02.323Z,16.91
2022-10-25T09:21:02.353Z,16.92
2022-10-25T09:22:02.740Z,16.92
2022-10-25T09:23:02.630Z,16.91
2022-10-25T09:24:02.797Z,16.89
2022-10-25T09:25:02.743Z,16.88
2022-10-25T09:26:02.637Z,16.91
2022-10-25T09:27:02.644Z,16.93
2022-10-25T09:28:03.056Z,16.98
2022-10-25T09:29:02.848Z,17.03
2022-10-25T09:30:05.212Z,17.07
2022-10-25T09:31:02.944Z,17.08
2022-10-25T09:32:02.906Z,17.08
2022-10-25T09:33:02.962Z,17.09
2022-10-25T09:34:04.272Z,17.10
2022-10-25T09:35:03.074Z,17.12
2022-10-25T09:36:02.903Z,17.13
2022-10-25T09:37:02.653Z,17.15
2022-10-25T09:38:02.579Z,17.19
2022-10-25T09:39:02.988Z,17.23
2022-10-25T09:40:02.559Z,17.26
2022-10-25T09:41:02.625Z,17.30
2022-10-25T09:42:02.028Z,17.34
2022-10-25T09:43:02.139Z,17.37
2022-10-25T09:44:02.520Z,17.41
2022-10-25T09:45:02.395Z,17.44
2022-10-25T09:46:02.123Z,17.49
2022-10-25T09:47:02.775Z,17.49
2022-10-25T09:48:02.677Z,17.51
2022-10-25T09:49:02.685Z,17.53
2022-10-25T09:50:02.991Z,17.53
2022-10-25T09:51:02.923Z,17.53
2022-10-25T09:52:02.489Z,17.55
2022-10-25T09:53:02.264Z,17.51
2022-10-25T09:54:02.249Z,17.47
2022-10-25T09:55:02.702Z,17.48
2022-10-25T09:56:02.640Z,17.45
2022-10-25T09:57:02.643Z,17.44
2022-10-25T09:58:02.647Z,17.43
2022-10-25T09:59:02.546Z,17.42
2022-10-25T10:00:02.421Z,17.42
2022-10-25T10:01:02.524Z,17.42
2022-10-25T10:02:03.347Z,17.47
2022-10-25T10:03:03.606Z,17.49
2022-10-25T10:04:03.427Z,17.53
2022-10-25T10:05:03.323Z,17.55
2022-10-25T10:06:03.377Z,17.57
2022-10-25T10:07:03.372Z,17.58
2022-10-25T10:08:03.658Z,17.59
2022-10-25T10:09:03.158Z,17.60
2022-10-25T10:10:03.155Z,17.62
2022-10-25T10:11:03.739Z,17.66
2022-10-25T10:12:02.629Z,17.70
2022-10-25T10:13:02.604Z,17.74
2022-10-25T10:14:04.975Z,17.76
2022-10-25T10:15:02.352Z,17.75
2022-10-25T10:16:02.353Z,17.74
2022-10-25T10:17:02.882Z,17.76
2022-10-25T10:18:03.171Z,17.78
2022-10-25T10:19:02.808Z,17.79
2022-10-25T10:20:03.274Z,17.80
2022-10-25T10:21:03.104Z,17.81
2022-10-25T10:22:02.953Z,17.83
2022-10-25T10:23:06.313Z,17.83
2022-10-25T10:24:02.805Z,17.81
2022-10-25T10:25:03.110Z,17.77
2022-10-25T10:26:02.875Z,17.76
2022-10-25T10:27:02.687Z,17.76
2022-10-25T10:28:02.505Z,17.75
2022-10-25T10:29:06.487Z,17.75
2022-10-25T10:30:02.501Z,17.77
2022-10-25T10:31:02.441Z,17.74
2022-10-25T10:32:03.159Z,17.70
2022-10-25T10:33:03.066Z,17.69
2022-10-25T10:34:03.376Z,17.70
2022-10-25T10:35:03.341Z,17.69
2022-10-25T10:36:03.125Z,17.69
2022-10-25T10:37:02.802Z,17.69
2022-10-25T10:38:02.736Z,17.68
2022-10-25T10:39:03.608Z,17.68
2022-10-25T10:40:03.085Z,17.68
2022-10-25T10:41:02.841Z,17.66
2022-10-25T10:42:03.547Z,17.65
2022-10-25T10:43:03.506Z,17.63
2022-10-25T10:44:03.455Z,17.63
2022-10-25T10:45:03.539Z,17.59
2022-10-25T10:46:03.578Z,17.59
2022-10-25T10:47:03.322Z,17.58
2022-10-25T10:48:03.435Z,17.59
2022-10-25T10:49:03.350Z,17.60
2022-10-25T10:50:03.419Z,17.61
2022-10-25T10:51:04.703Z,17.64
2022-10-25T10:52:03.057Z,17.67
2022-10-25T10:53:03.015Z,17.68
2022-10-25T10:54:03.039Z,17.68
2022-10-25T10:55:02.965Z,17.69
2022-10-25T10:56:02.698Z,17.70
2022-10-25T10:57:03.397Z,17.70
2022-10-25T10:58:03.374Z,17.72
2022-10-25T10:59:03.603Z,17.76
2022-10-25T11:00:03.182Z,17.82
2022-10-25T11:01:03.445Z,17.84
2022-10-25T11:02:02.765Z,17.83
2022-10-25T11:03:02.651Z,17.83
2022-10-25T11:04:02.550Z,17.85
2022-10-25T11:05:02.555Z,17.85
2022-10-25T11:06:02.584Z,17.89
2022-10-25T11:07:02.944Z,17.90
2022-10-25T11:09:02.774Z,17.90
2022-10-25T11:10:02.812Z,17.91
2022-10-25T11:11:02.781Z,17.90
2022-10-25T11:12:03.089Z,17.92
2022-10-25T11:13:03.033Z,17.94
2022-10-25T11:14:02.718Z,17.95
2022-10-25T11:15:02.673Z,17.98
2022-10-25T11:16:02.697Z,18.03
2022-10-25T11:17:03.332Z,18.09
2022-10-25T11:18:03.218Z,18.17
2022-10-25T11:19:03.173Z,18.23
2022-10-25T11:20:03.191Z,18.26
2022-10-25T11:21:03.276Z,18.29
2022-10-25T11:22:02.891Z,18.30
2022-10-25T11:23:05.139Z,18.31
2022-10-25T11:24:02.499Z,18.31
2022-10-25T11:25:02.374Z,18.33
2022-10-25T11:26:02.401Z,18.33
2022-10-25T11:27:02.900Z,18.37
2022-10-25T11:28:03.038Z,18.38
2022-10-25T11:29:02.718Z,18.41
2022-10-25T11:30:02.462Z,18.42
2022-10-25T11:31:02.401Z,18.40
2022-10-25T11:32:03.482Z,18.37
2022-10-25T11:33:03.406Z,18.34
2022-10-25T11:34:05.586Z,18.33
2022-10-25T11:35:03.095Z,18.33
2022-10-25T11:36:03.230Z,18.34
2022-10-25T11:37:02.951Z,18.34
2022-10-25T11:38:02.563Z,18.35
2022-10-25T11:39:02.586Z,18.37
2022-10-25T11:40:02.563Z,18.38
2022-10-25T11:41:02.616Z,18.40
2022-10-25T11:42:02.789Z,18.42
2022-10-25T11:43:03.037Z,18.47
2022-10-25T11:44:02.987Z,18.51
2022-10-25T11:45:02.776Z,18.54
2022-10-25T11:46:02.802Z,18.53
2022-10-25T11:47:02.081Z,18.56
2022-10-25T11:48:02.141Z,18.55
2022-10-25T11:49:02.630Z,18.55
2022-10-25T11:50:02.606Z,18.58
2022-10-25T11:51:02.521Z,18.64
2022-10-25T11:52:02.515Z,18.69
2022-10-25T11:53:02.852Z,18.72
2022-10-25T11:54:02.834Z,18.80
2022-10-25T11:55:02.820Z,18.82
2022-10-25T11:56:02.817Z,18.86
2022-10-25T11:57:02.819Z,18.89
2022-10-25T11:58:05.663Z,18.93
2022-10-25T11:59:03.054Z,18.97
2022-10-25T12:00:03.167Z,19.01
2022-10-25T12:01:03.438Z,19.07
2022-10-25T12:02:03.312Z,19.11
2022-10-25T12:03:02.429Z,19.16
2022-10-25T12:04:02.836Z,19.20
2022-10-25T12:05:03.018Z,19.25
2022-10-25T12:06:02.814Z,19.29
2022-10-25T12:07:02.583Z,19.30
2022-10-25T12:08:03.170Z,19.29
2022-10-25T12:09:03.261Z,19.25
2022-10-25T12:10:02.911Z,19.21
2022-10-25T12:11:02.970Z,19.16
2022-10-25T12:12:03.371Z,19.10
2022-10-25T12:13:03.184Z,19.07
2022-10-25T12:14:02.941Z,19.04
2022-10-25T12:15:02.875Z,18.99
2022-10-25T12:16:02.997Z,18.96
2022-10-25T12:17:02.979Z,18.95
2022-10-25T12:18:02.807Z,18.96
2022-10-25T12:19:03.058Z,18.97
2022-10-25T12:20:02.978Z,18.95
2022-10-25T12:21:02.989Z,18.91
2022-10-25T12:22:02.984Z,18.88
2022-10-25T12:23:02.673Z,18.90
2022-10-25T12:24:02.600Z,18.93
2022-10-25T12:25:02.572Z,18.96
2022-10-25T12:26:02.597Z,18.97
2022-10-25T12:27:02.585Z,18.97
2022-10-25T12:28:03.003Z,19.00
2022-10-25T12:29:02.908Z,19.03
2022-10-25T12:30:03.577Z,19.07
2022-10-25T12:31:03.299Z,19.08
2022-10-25T12:32:03.395Z,19.02
2022-10-25T12:33:02.429Z,18.94
2022-10-25T12:34:02.385Z,18.88
2022-10-25T12:35:02.425Z,18.85
2022-10-25T12:36:02.305Z,18.84
2022-10-25T12:37:02.189Z,18.81
2022-10-25T12:38:02.527Z,18.78
2022-10-25T12:39:03.063Z,18.76
2022-10-25T12:40:02.771Z,18.72
2022-10-25T12:41:03.104Z,18.70
2022-10-25T12:42:02.821Z,18.67
2022-10-25T12:43:02.503Z,18.62
2022-10-25T12:44:02.176Z,18.59
2022-10-25T12:45:02.302Z,18.60
2022-10-25T12:46:02.402Z,18.64
2022-10-25T12:47:02.449Z,18.69
2022-10-25T12:48:03.408Z,18.75
2022-10-25T12:49:02.808Z,18.80
2022-10-25T12:50:02.944Z,18.87
2022-10-25T12:51:03.014Z,18.91
2022-10-25T12:52:03.021Z,18.94
2022-10-25T12:53:02.818Z,18.96
2022-10-25T12:54:02.617Z,19.00